Hauptseite
METAR-TAF:

METAR-TAF

Flughäfen :

Tena, Ecuador

Breite: 01-03-35S, Länge: 77-35-00W, Höhe: 376 m

Beobachtung

Neuester Wetterbericht von vor 30 Minuten, um 20:00 UTC
Wind 7 kt aus Ost
Temperatur 29°C
Luftfeuchtigkeit 70%
Luftdruck 1013 hPa
Sichtweite 10 km oder mehr
Aufgelockert bewölkt in der Höhe von 2300 ft, Towering cumulus.
Aufgelockert bewölkt in der Höhe von 10000 ft
Schauer in der Nähe

METAR: SEJD 122000Z 08007KT 9999 VCSH SCT023TCU SCT100 29/23 Q1013 RMK A2992

Zeit: 15:30 (20:30 UTC)


TAF: fehlend

Wetterbeobachtungen und Prognosen von mehr als 4000 Flughäfen (METAR und TAF Bericht).

Die verfügbaren Stationen werden durch gelbe und rote Markierungen auf der Karte dargestellt.

Führen Sie die Maus auf sie, um den Namen der Station zu sehen.

Darauf klicken, um die Beobachtung von Wetterbeobachtungen und Prognosen zu sehen.

Um die Karte zu ändern : klicken Sie auf den grünen Tasten mit einem schwarzen Kreuz Zum Vergrößern, auf den grünen Button mit einem Gedankenstrich zu verkleinern, oder auf die grünen Pfeile für benachbarte Karten.


METAR-TAF: